Time;durP1;ratioP1;P1;durP2;ratioP2;P2;SDS_P1;SDS_P2;PMS_P1;PMS_P2;Temp;Humidity;BMP_temperature;BMP_pressure;BME280_temperature;BME280_humidity;BME280_pressure;Samples;Min_cycle;Max_cycle;Signal;HPM_P1;HPM_P2
2022/10/13 00:00:43;;;;;;;14.85;5.30;;;;;;;7.48;65.72;100378.47;1811251;79;21163;-44
2022/10/13 00:03:10;;;;;;;16.17;6.17;;;;;;;7.51;65.97;100375.14;1811061;79;21029;-44
2022/10/13 00:05:42;;;;;;;14.50;6.05;;;;;;;7.57;65.74;100377.39;1811178;79;20957;-44
2022/10/13 00:08:11;;;;;;;12.05;5.65;;;;;;;7.63;65.62;100368.04;1811152;79;20933;-44
2022/10/13 00:10:46;;;;;;;12.63;5.80;;;;;;;7.67;65.49;100362.80;1811100;79;21068;-44
2022/10/13 00:13:13;;;;;;;12.50;5.97;;;;;;;7.71;65.56;100371.84;1811370;79;21068;-44
2022/10/13 00:15:44;;;;;;;14.23;5.97;;;;;;;7.77;65.93;100374.64;1810962;79;20992;-44
2022/10/13 00:18:14;;;;;;;16.75;6.60;;;;;;;7.84;66.34;100380.38;1811233;79;20957;-44
2022/10/13 00:20:45;;;;;;;11.53;5.47;;;;;;;7.89;66.39;100379.44;1811509;79;20956;-44
2022/10/13 00:23:13;;;;;;;13.43;6.15;;;;;;;7.93;66.35;100379.83;1806404;79;21076;-44
2022/10/13 00:25:46;;;;;;;11.90;5.05;;;;;;;7.97;66.28;100379.44;1811251;79;21499;-44
2022/10/13 00:28:14;;;;;;;13.05;6.08;;;;;;;8.06;66.01;100381.58;1811265;79;21578;-44
2022/10/13 00:30:42;;;;;;;12.83;6.10;;;;;;;8.16;65.78;100383.17;1811541;79;21052;-44
2022/10/13 00:33:10;;;;;;;14.07;6.08;;;;;;;8.25;65.50;100376.65;1811295;79;20952;-44
2022/10/13 00:35:42;;;;;;;13.20;5.62;;;;;;;8.29;65.40;100375.45;1811563;79;21000;-44
2022/10/13 00:38:10;;;;;;;13.20;5.50;;;;;;;8.35;65.25;100372.86;1811056;79;21823;-44
2022/10/13 00:40:45;;;;;;;15.40;6.25;;;;;;;8.36;65.05;100373.10;1811233;79;21052;-44
2022/10/13 00:43:18;;;;;;;12.00;5.37;;;;;;;8.38;64.93;100370.06;1811051;79;21546;-44
2022/10/13 00:45:45;;;;;;;14.28;5.92;;;;;;;8.39;64.76;100374.36;1811263;79;20956;-44
2022/10/13 00:48:11;;;;;;;13.43;6.05;;;;;;;8.39;64.62;100374.36;1810376;79;21017;-44
2022/10/13 00:50:41;;;;;;;11.90;5.78;;;;;;;8.37;64.49;100373.90;1824884;78;21186;-44
2022/10/13 00:53:09;;;;;;;12.50;5.72;;;;;;;8.34;64.54;100373.17;1825343;78;21544;-44
2022/10/13 00:55:37;;;;;;;13.85;5.10;;;;;;;8.29;64.50;100371.39;1825597;78;20906;-44
2022/10/13 00:58:06;;;;;;;11.55;5.47;;;;;;;8.31;64.37;100373.81;1825547;78;21024;-44
2022/10/13 01:00:33;;;;;;;10.82;4.20;;;;;;;8.36;64.20;100373.66;1825817;78;21613;-44
2022/10/13 01:03:01;;;;;;;17.27;6.08;;;;;;;8.37;64.01;100371.99;1806677;78;21073;-44
2022/10/13 01:05:29;;;;;;;11.55;5.20;;;;;;;8.37;64.24;100367.14;1795968;79;20979;-44
2022/10/13 01:07:56;;;;;;;12.58;5.40;;;;;;;8.36;64.27;100368.25;1796007;79;21779;-44
2022/10/13 01:10:54;;;;;;;18.62;6.17;;;;;;;8.34;64.19;100371.27;1763073;79;20965;-44
2022/10/13 01:13:56;;;;;;;14.28;5.85;;;;;;;8.32;63.95;100362.70;1796075;79;21034;-44
2022/10/13 01:16:58;;;;;;;10.63;5.70;;;;;;;8.25;63.96;100365.84;1796407;79;21099;-44
2022/10/13 01:19:47;;;;;;;13.15;5.33;;;;;;;8.18;64.04;100362.81;1795969;79;21524;-44
2022/10/13 01:22:46;;;;;;;12.95;5.67;;;;;;;8.09;64.02;100367.43;1795824;79;21174;-44
2022/10/13 01:25:54;;;;;;;14.07;5.30;;;;;;;8.03;64.25;100366.02;1759806;79;21097;-44
2022/10/13 01:28:57;;;;;;;12.70;5.40;;;;;;;7.96;64.12;100364.34;1795396;79;20969;-44
2022/10/13 01:31:41;;;;;;;13.03;5.15;;;;;;;7.87;64.19;100362.19;1796024;79;21228;-44
2022/10/13 01:34:22;;;;;;;11.03;5.15;;;;;;;7.88;64.20;100371.09;1796294;79;20974;-44
2022/10/13 01:37:03;;;;;;;13.88;5.65;;;;;;;7.90;64.02;100368.30;1796355;79;21611;-44
2022/10/13 01:39:47;;;;;;;12.25;5.53;;;;;;;7.92;64.35;100367.44;1794951;79;20998;-44
2022/10/13 01:42:20;;;;;;;11.38;5.10;;;;;;;7.92;64.56;100364.73;1785038;79;21073;-44
2022/10/13 01:44:53;;;;;;;11.40;5.53;;;;;;;7.91;64.54;100365.84;1796363;79;21232;-44
2022/10/13 01:47:20;;;;;;;12.30;5.50;;;;;;;7.88;64.45;100371.89;1796175;79;20934;-44
2022/10/13 01:49:50;;;;;;;10.43;4.92;;;;;;;7.86;64.41;100366.80;1799017;79;20926;-44
2022/10/13 01:52:18;;;;;;;12.45;5.12;;;;;;;7.84;64.34;100361.48;1802027;79;20986;-44
2022/10/13 01:54:51;;;;;;;10.43;5.00;;;;;;;7.81;64.46;100362.10;1802310;79;21010;-44
2022/10/13 01:57:34;;;;;;;10.88;5.20;;;;;;;7.77;64.52;100370.59;1801854;79;21225;-44
2022/10/13 02:00:08;;;;;;;10.32;4.92;;;;;;;7.72;64.78;100362.65;1794497;79;21392;-44
2022/10/13 02:03:05;;;;;;;11.38;5.30;;;;;;;7.73;64.89;100364.25;1801864;79;20926;-44
2022/10/13 02:05:55;;;;;;;10.15;5.20;;;;;;;7.74;65.10;100369.89;1801834;79;21077;-44
2022/10/13 02:08:30;;;;;;;8.85;4.92;;;;;;;7.73;65.65;100371.79;1801761;79;21496;-44
2022/10/13 02:11:15;;;;;;;11.53;5.33;;;;;;;7.74;65.97;100366.64;1770753;79;20981;-44
2022/10/13 02:13:53;;;;;;;10.58;4.85;;;;;;;7.74;66.06;100369.89;1801671;79;21519;-44
2022/10/13 02:16:22;;;;;;;9.90;5.33;;;;;;;7.76;66.31;100359.55;1801735;79;21468;-44
2022/10/13 02:18:49;;;;;;;11.00;5.42;;;;;;;7.77;66.32;100370.05;1801754;79;21093;-44
2022/10/13 02:21:17;;;;;;;13.28;5.70;;;;;;;7.80;66.46;100364.55;1801675;79;21527;-44
2022/10/13 02:23:45;;;;;;;15.15;5.30;;;;;;;7.83;66.45;100363.94;1801766;79;21224;-43
2022/10/13 02:26:13;;;;;;;12.82;5.55;;;;;;;7.88;66.35;100365.69;1801594;79;20962;-44
2022/10/13 02:28:40;;;;;;;13.28;5.85;;;;;;;7.92;66.28;100367.44;1801757;79;20973;-44
2022/10/13 02:31:08;;;;;;;13.48;5.47;;;;;;;7.99;66.32;100371.03;1801696;79;20994;-44
2022/10/13 02:33:35;;;;;;;10.90;5.00;;;;;;;8.03;66.45;100367.38;1801837;79;22013;-44
2022/10/13 02:36:03;;;;;;;11.78;5.12;;;;;;;8.08;66.24;100368.56;1801769;79;21515;-44
2022/10/13 02:38:31;;;;;;;15.05;4.90;;;;;;;7.99;66.14;100368.33;1801657;79;21018;-44
2022/10/13 02:41:00;;;;;;;14.07;5.17;;;;;;;7.91;66.29;100369.89;1801860;79;21071;-44
2022/10/13 02:43:28;;;;;;;12.55;5.03;;;;;;;7.88;66.56;100365.69;1771350;79;20974;-44
2022/10/13 02:45:55;;;;;;;14.23;4.90;;;;;;;7.86;66.72;100366.00;1801756;79;21024;-44
2022/10/13 02:48:22;;;;;;;12.45;5.25;;;;;;;7.84;66.79;100360.91;1801567;79;23198;-44
2022/10/13 02:50:50;;;;;;;12.65;5.72;;;;;;;7.86;66.80;100365.44;1797029;79;20988;-44
2022/10/13 02:53:17;;;;;;;10.65;5.00;;;;;;;7.90;66.75;100357.50;1796065;79;21022;-44
2022/10/13 02:55:44;;;;;;;10.88;5.37;;;;;;;7.94;66.77;100365.20;1796161;79;21081;-44
2022/10/13 02:58:11;;;;;;;14.53;5.80;;;;;;;8.00;66.89;100355.84;1796129;79;21018;-44
2022/10/13 03:00:38;;;;;;;11.40;5.90;;;;;;;7.99;66.65;100356.17;1796034;79;21299;-44
2022/10/13 03:03:05;;;;;;;12.25;4.97;;;;;;;7.92;66.64;100359.34;1795979;79;20938;-44
2022/10/13 03:05:33;;;;;;;12.07;5.10;;;;;;;7.86;66.52;100360.59;1796177;79;21048;-44
2022/10/13 03:08:00;;;;;;;12.20;5.20;;;;;;;7.74;66.90;100361.79;1796183;79;21050;-44
2022/10/13 03:10:27;;;;;;;13.15;5.12;;;;;;;7.69;67.28;100363.29;1796123;79;21517;-44
2022/10/13 03:12:55;;;;;;;14.68;5.83;;;;;;;7.69;67.33;100360.59;1763553;79;21246;-44
2022/10/13 03:15:24;;;;;;;10.68;5.17;;;;;;;7.76;67.23;100359.55;1796218;79;20970;-44
2022/10/13 03:17:52;;;;;;;9.75;5.12;;;;;;;7.86;67.41;100360.59;1795904;79;20938;-44
2022/10/13 03:20:19;;;;;;;12.63;4.95;;;;;;;7.94;67.42;100365.20;1796133;79;21015;-44
2022/10/13 03:22:46;;;;;;;12.25;5.85;;;;;;;8.00;67.19;100361.23;1796190;79;21045;-43
2022/10/13 03:25:13;;;;;;;10.80;5.15;;;;;;;8.06;67.07;100359.97;1796019;79;23120;-44
2022/10/13 03:27:41;;;;;;;14.58;5.33;;;;;;;8.10;66.92;100358.22;1796471;79;20931;-44
2022/10/13 03:30:10;;;;;;;10.80;4.90;;;;;;;8.14;67.04;100367.27;1790869;79;21036;-44
2022/10/13 03:32:37;;;;;;;11.73;4.67;;;;;;;8.17;67.02;100364.50;1821093;77;21031;-44
2022/10/13 03:35:05;;;;;;;9.63;4.40;;;;;;;8.22;66.63;100358.39;1825663;78;21631;-44
2022/10/13 03:37:32;;;;;;;10.75;5.35;;;;;;;8.24;66.65;100353.44;1825644;78;21131;-44
2022/10/13 03:39:59;;;;;;;16.45;5.60;;;;;;;8.26;66.47;100355.84;1825713;78;21007;-44
2022/10/13 03:42:26;;;;;;;14.15;6.05;;;;;;;8.26;66.45;100356.63;1825629;78;21003;-44
2022/10/13 03:44:52;;;;;;;17.60;5.55;;;;;;;8.28;66.46;100362.49;1825933;78;21063;-44
2022/10/13 03:47:19;;;;;;;10.63;4.80;;;;;;;8.33;66.37;100352.11;1825699;78;21005;-44
2022/10/13 03:49:45;;;;;;;10.58;5.40;;;;;;;8.32;66.27;100351.89;1825535;78;23080;-44
2022/10/13 03:52:13;;;;;;;14.80;5.30;;;;;;;8.29;66.19;100357.89;1825493;78;20995;-44
2022/10/13 03:54:40;;;;;;;12.35;4.85;;;;;;;8.19;66.23;100356.31;1825699;78;21018;-44
2022/10/13 03:57:08;;;;;;;8.08;4.72;;;;;;;8.12;66.43;100356.01;1825729;78;20969;-44
2022/10/13 03:59:35;;;;;;;10.50;5.10;;;;;;;8.11;66.51;100353.62;1825785;78;20988;-44
2022/10/13 04:02:02;;;;;;;10.78;5.22;;;;;;;8.12;66.47;100358.71;1825734;78;21299;-44
2022/10/13 04:04:29;;;;;;;10.72;5.65;;;;;;;8.14;66.47;100358.38;1825496;78;21516;-44
2022/10/13 04:06:57;;;;;;;14.50;5.40;;;;;;;8.08;66.63;100359.11;1825520;78;20980;-44
2022/10/13 04:09:25;;;;;;;12.05;5.60;;;;;;;8.04;66.64;100374.34;1825764;78;20893;-44
2022/10/13 04:11:52;;;;;;;11.55;5.33;;;;;;;8.08;66.89;100367.77;1826035;78;21052;-44
2022/10/13 04:14:19;;;;;;;13.35;5.47;;;;;;;8.12;66.87;100378.97;1825697;78;21090;-44
2022/10/13 04:16:46;;;;;;;11.30;5.42;;;;;;;8.14;67.03;100371.32;1825641;78;21596;-44
2022/10/13 04:19:14;;;;;;;12.63;4.78;;;;;;;8.16;66.88;100371.81;1825597;78;21012;-44
2022/10/13 04:21:42;;;;;;;10.63;5.35;;;;;;;8.20;66.99;100370.05;1826014;78;21530;-44
2022/10/13 04:24:12;;;;;;;9.45;5.17;;;;;;;8.31;66.96;100367.06;1825833;78;21031;-44
2022/10/13 04:26:39;;;;;;;10.82;5.22;;;;;;;8.42;66.89;100365.63;1825933;78;21069;-44
2022/10/13 04:29:11;;;;;;;11.30;5.55;;;;;;;8.39;66.78;100370.30;1825619;78;21482;-44
2022/10/13 04:31:38;;;;;;;13.38;5.25;;;;;;;8.40;66.71;100361.09;1826102;78;20924;-44
2022/10/13 04:34:06;;;;;;;13.10;5.47;;;;;;;8.38;66.69;100367.36;1826035;78;21020;-44
2022/10/13 04:36:33;;;;;;;16.17;6.15;;;;;;;8.26;66.66;100367.99;1825979;78;21024;-44
2022/10/13 04:39:00;;;;;;;13.45;6.72;;;;;;;8.16;66.87;100365.61;1825661;78;21301;-44
2022/10/13 04:41:27;;;;;;;13.55;6.00;;;;;;;8.09;67.05;100360.67;1825786;78;20953;-44
2022/10/13 04:43:54;;;;;;;13.68;6.47;;;;;;;8.04;67.02;100360.84;1825769;78;20968;-44
2022/10/13 04:46:24;;;;;;;16.25;7.25;;;;;;;8.01;67.31;100365.53;1825783;78;21068;-44
2022/10/13 04:48:51;;;;;;;15.40;7.25;;;;;;;8.03;67.52;100363.88;1826012;78;21408;-44
2022/10/13 04:51:22;;;;;;;17.85;7.50;;;;;;;8.02;67.63;100371.17;1819370;78;21277;-44
2022/10/13 04:53:55;;;;;;;21.20;8.30;;;;;;;7.99;67.87;100374.49;1817393;78;21055;-44
2022/10/13 04:56:22;;;;;;;16.45;7.95;;;;;;;7.98;67.95;100375.63;1817185;79;21388;-44
2022/10/13 04:58:49;;;;;;;14.20;7.55;;;;;;;8.03;68.19;100377.38;1794069;79;20992;-44
2022/10/13 05:01:19;;;;;;;16.37;7.80;;;;;;;8.11;68.37;100370.62;1737850;81;21118;-44
2022/10/13 05:03:45;;;;;;;13.38;7.30;;;;;;;8.22;68.31;100382.70;1737987;82;21133;-44
2022/10/13 05:06:17;;;;;;;16.32;7.05;;;;;;;8.33;68.14;100377.00;1738143;82;21470;-44
2022/10/13 05:08:46;;;;;;;16.40;7.60;;;;;;;8.45;68.06;100384.69;1737716;82;21036;-44
2022/10/13 05:11:14;;;;;;;12.78;7.08;;;;;;;8.51;68.08;100372.61;1737586;82;21534;-44
2022/10/13 05:13:42;;;;;;;20.08;8.93;;;;;;;8.59;68.14;100375.05;1738594;82;21055;-44
2022/10/13 05:16:11;;;;;;;15.60;8.30;;;;;;;8.67;68.15;100385.83;1738488;82;21135;-44
2022/10/13 05:18:39;;;;;;;16.17;7.67;;;;;;;8.76;68.06;100384.48;1737910;82;20968;-44
2022/10/13 05:21:13;;;;;;;13.25;7.05;;;;;;;8.83;67.62;100382.62;1737906;82;21016;-44
2022/10/13 05:23:41;;;;;;;16.48;7.00;;;;;;;8.82;67.28;100395.34;1738389;82;21622;-44
2022/10/13 05:26:15;;;;;;;11.70;6.72;;;;;;;8.87;67.34;100391.11;1738858;82;20999;-44
2022/10/13 05:28:43;;;;;;;12.40;6.35;;;;;;;8.95;66.98;100395.72;1764483;81;21262;-44
2022/10/13 05:31:17;;;;;;;14.00;6.50;;;;;;;8.99;66.78;100396.66;1766795;81;20958;-44
2022/10/13 05:33:44;;;;;;;16.40;6.83;;;;;;;9.00;66.65;100396.91;1766511;81;21026;-44
2022/10/13 05:36:17;;;;;;;13.93;6.12;;;;;;;8.95;66.39;100403.03;1746049;81;20976;-44
2022/10/13 05:38:44;;;;;;;13.05;6.70;;;;;;;8.89;66.72;100405.12;1737355;82;21095;-44
2022/10/13 05:41:12;;;;;;;14.73;6.70;;;;;;;8.88;66.97;100400.82;1738633;82;21138;-44
2022/10/13 05:43:41;;;;;;;13.50;6.10;;;;;;;8.92;66.89;100405.81;1738604;82;20963;-44
2022/10/13 05:46:08;;;;;;;12.82;6.25;;;;;;;8.88;66.86;100404.88;1738426;82;21059;-44
2022/10/13 05:48:36;;;;;;;13.98;6.53;;;;;;;8.83;67.08;100411.01;1737895;82;20984;-44
2022/10/13 05:51:21;;;;;;;16.07;6.60;;;;;;;8.90;67.43;100405.36;1735447;81;21039;-44
2022/10/13 05:53:52;;;;;;;13.10;6.20;;;;;;;9.04;67.43;100401.09;1732248;82;22090;-44
2022/10/13 05:56:23;;;;;;;14.63;6.10;;;;;;;9.16;67.43;100403.34;1732255;82;21114;-44
2022/10/13 05:58:55;;;;;;;17.17;6.35;;;;;;;9.23;67.01;100409.62;1760114;81;21032;-44
2022/10/13 06:01:23;;;;;;;13.18;6.65;;;;;;;9.25;66.94;100404.66;1736912;81;21003;-44
2022/10/13 06:03:51;;;;;;;13.50;5.90;;;;;;;9.25;66.81;100402.51;1748051;82;21479;-44
2022/10/13 06:06:20;;;;;;;13.00;6.00;;;;;;;9.24;66.95;100409.06;1739383;82;21258;-44
2022/10/13 06:08:49;;;;;;;9.93;5.50;;;;;;;9.30;67.16;100405.03;1704629;81;21095;-44
2022/10/13 06:11:16;;;;;;;10.98;5.65;;;;;;;9.37;66.83;100407.48;1734994;81;21031;-44
2022/10/13 06:13:43;;;;;;;11.93;6.00;;;;;;;9.38;66.67;100405.58;1726537;83;21041;-44
2022/10/13 06:16:10;;;;;;;12.80;5.47;;;;;;;9.40;66.86;100401.41;1726431;83;21045;-44
2022/10/13 06:18:38;;;;;;;11.22;5.47;;;;;;;9.44;66.77;100409.69;1726522;83;21008;-44
2022/10/13 06:21:05;;;;;;;17.17;7.12;;;;;;;9.51;66.75;100408.61;1726563;83;21511;-44
2022/10/13 06:23:32;;;;;;;21.17;7.00;;;;;;;9.53;66.58;100403.67;1726500;83;21012;-44
2022/10/13 06:26:01;;;;;;;20.95;7.95;;;;;;;9.53;66.80;100405.03;1726263;83;21027;-44
2022/10/13 06:28:28;;;;;;;17.98;7.25;;;;;;;9.59;66.79;100406.41;1726554;83;21044;-44
2022/10/13 06:30:57;;;;;;;22.10;7.78;;;;;;;9.67;66.53;100402.87;1726430;83;21156;-44
2022/10/13 06:33:24;;;;;;;16.75;7.20;;;;;;;9.68;66.35;100413.15;1726392;83;20980;-44
2022/10/13 06:35:52;;;;;;;15.70;7.30;;;;;;;9.71;66.45;100407.06;1726455;83;21011;-44
2022/10/13 06:38:21;;;;;;;19.27;7.17;;;;;;;9.73;66.64;100406.95;1726348;83;21448;-44
2022/10/13 06:40:49;;;;;;;17.82;7.83;;;;;;;9.81;66.58;100412.91;1726666;83;21068;-44
2022/10/13 06:43:16;;;;;;;19.82;6.85;;;;;;;9.88;66.50;100413.16;1726404;83;21250;-44
2022/10/13 06:45:43;;;;;;;19.82;7.40;;;;;;;9.92;66.20;100410.02;1726500;83;21084;-44
2022/10/13 06:48:10;;;;;;;16.48;6.65;;;;;;;9.96;66.04;100408.82;1726593;83;20949;-44
2022/10/13 06:50:37;;;;;;;16.57;6.35;;;;;;;9.96;65.79;100411.53;1731458;81;21373;-44
2022/10/13 06:53:04;;;;;;;17.05;6.45;;;;;;;9.92;65.78;100412.73;1758523;81;21056;-44
2022/10/13 06:55:31;;;;;;;24.87;7.12;;;;;;;9.98;66.06;100415.48;1758605;81;21258;-44
2022/10/13 06:57:57;;;;;;;14.93;6.37;;;;;;;10.15;65.96;100419.20;1731656;81;21024;-44
2022/10/13 07:00:24;;;;;;;15.23;6.15;;;;;;;10.28;65.77;100418.16;1758500;81;21041;-44
2022/10/13 07:02:51;;;;;;;15.15;5.97;;;;;;;10.36;65.51;100413.25;1758572;81;20929;-44
2022/10/13 07:05:18;;;;;;;15.08;6.58;;;;;;;10.33;65.50;100413.89;1758353;81;21067;-44
2022/10/13 07:07:46;;;;;;;20.30;6.50;;;;;;;10.31;65.80;100405.32;1758489;81;22034;-44
2022/10/13 07:10:13;;;;;;;17.07;6.28;;;;;;;10.36;65.69;100411.89;1758415;81;21585;-44
2022/10/13 07:12:40;;;;;;;15.75;5.87;;;;;;;10.36;65.54;100409.19;1758509;81;21099;-44
2022/10/13 07:15:10;;;;;;;15.25;6.67;;;;;;;10.32;65.55;100409.59;1758268;81;20945;-44
2022/10/13 07:17:36;;;;;;;12.47;5.90;;;;;;;10.33;65.72;100410.63;1758378;81;21032;-44
2022/10/13 07:20:07;;;;;;;13.38;6.03;;;;;;;10.45;65.84;100418.83;1758324;81;21020;-44
2022/10/13 07:22:35;;;;;;;12.15;6.12;;;;;;;10.53;65.42;100418.51;1758496;81;21000;-44
2022/10/13 07:25:02;;;;;;;13.05;6.10;;;;;;;10.53;65.50;100414.44;1758363;81;21089;-44
2022/10/13 07:27:30;;;;;;;16.55;6.80;;;;;;;10.61;65.65;100410.05;1758463;81;21580;-44
2022/10/13 07:29:56;;;;;;;13.68;5.92;;;;;;;10.68;65.56;100411.11;1758324;81;21049;-44
2022/10/13 07:32:23;;;;;;;17.48;6.67;;;;;;;10.76;65.43;100410.22;1758412;81;21315;-44
2022/10/13 08:01:01;;;;;;;10.98;5.67;;;;;;;11.16;64.98;100417.77;1758011;77;21005;-43
2022/10/13 08:03:28;;;;;;;12.82;5.53;;;;;;;11.17;64.70;100418.80;1771840;81;21498;-44
2022/10/13 08:05:58;;;;;;;11.75;5.90;;;;;;;11.18;64.51;100422.31;1771579;81;21013;-44
2022/10/13 08:08:25;;;;;;;;;;;;;;;11.19;64.67;100417.09;1769520;81;21000;-44
2022/10/13 08:10:54;;;;;;;12.53;5.25;;;;;;;11.27;64.22;100419.72;1772029;81;21623;-44
2022/10/13 08:13:23;;;;;;;12.63;5.58;;;;;;;11.31;64.13;100415.76;1772325;81;21000;-44
2022/10/13 08:15:49;;;;;;;14.40;6.03;;;;;;;11.34;63.89;100418.58;1771992;81;21093;-44
2022/10/13 08:18:16;;;;;;;12.78;5.50;;;;;;;11.40;64.16;100416.44;1771973;81;21486;-44
2022/10/13 08:20:45;;;;;;;14.25;6.00;;;;;;;11.52;63.92;100417.78;1772121;80;21000;-44
2022/10/13 08:23:30;;;;;;;14.30;5.83;;;;;;;11.63;63.88;100414.84;1772190;81;21023;-44
2022/10/13 08:25:57;;;;;;;12.00;5.85;;;;;;;11.72;62.96;100418.27;1772249;81;21080;-44
2022/10/13 08:28:27;;;;;;;14.45;5.22;;;;;;;11.80;62.50;100409.78;1772126;80;21208;-44
2022/10/13 08:30:58;;;;;;;14.93;4.90;;;;;;;11.87;62.40;100417.34;1727630;83;20955;-44
2022/10/13 08:33:25;;;;;;;15.55;5.83;;;;;;;11.92;62.13;100415.75;1727877;83;21638;-44
2022/10/13 08:35:52;;;;;;;14.28;5.40;;;;;;;11.98;62.04;100417.10;1727889;83;21542;-44
2022/10/13 08:38:20;;;;;;;13.25;5.35;;;;;;;12.03;61.85;100414.94;1727807;83;20971;-45
2022/10/13 08:40:48;;;;;;;14.00;5.20;;;;;;;12.06;62.15;100416.96;1727870;83;21238;-45
2022/10/13 08:43:20;;;;;;;13.40;4.97;;;;;;;12.14;62.30;100413.91;1728056;83;21531;-44
2022/10/13 08:45:50;;;;;;;15.32;4.87;;;;;;;12.28;62.45;100417.03;1727552;83;20982;-45
2022/10/13 08:48:20;;;;;;;12.90;4.83;;;;;;;12.43;62.13;100414.95;1727660;82;20982;-45
2022/10/13 08:50:54;;;;;;;12.90;5.78;;;;;;;12.59;62.03;100421.77;1728052;83;21086;-45
2022/10/13 08:53:29;;;;;;;12.10;5.30;;;;;;;12.72;61.70;100414.36;1727657;83;21129;-45
2022/10/13 08:56:08;;;;;;;17.80;4.85;;;;;;;12.85;61.05;100418.59;1727643;83;21047;-45
2022/10/13 08:58:38;;;;;;;9.80;4.92;;;;;;;12.94;60.67;100413.78;1727789;83;20995;-45
2022/10/13 09:01:19;;;;;;;13.20;4.85;;;;;;;13.01;60.46;100421.58;1736753;81;20945;-45
2022/10/13 09:07:05;;;;;;;12.65;4.37;;;;;;;13.22;60.09;100417.25;1849931;76;22693;-43
2022/10/13 09:09:33;;;;;;;11.40;5.20;;;;;;;13.27;59.75;100425.16;1809607;79;21006;-43
2022/10/13 09:12:01;;;;;;;8.70;4.62;;;;;;;13.37;59.11;100418.39;1817967;79;21606;-44
2022/10/13 09:14:35;;;;;;;9.60;4.00;;;;;;;13.41;59.08;100421.42;1817670;79;20970;-44
2022/10/13 09:17:22;;;;;;;11.55;4.35;;;;;;;13.45;58.74;100422.89;1817732;79;20896;-44
2022/10/13 09:20:03;;;;;;;11.80;4.60;;;;;;;13.47;58.74;100424.10;1817850;79;21487;-44
2022/10/13 09:22:35;;;;;;;;;;;;;;;13.46;57.93;100426.60;1820596;79;20895;-44
2022/10/13 09:25:16;;;;;;;12.05;4.55;;;;;;;13.48;58.22;100422.97;1817862;79;21107;-44
2022/10/13 09:27:56;;;;;;;12.55;4.65;;;;;;;13.45;58.48;100420.17;1817722;79;21013;-44
2022/10/13 09:30:34;;;;;;;12.68;4.62;;;;;;;13.54;58.53;100422.70;1817813;79;20880;-44
2022/10/13 09:33:20;;;;;;;9.18;3.85;;;;;;;13.60;58.28;100422.09;1817824;79;21017;-44
2022/10/13 09:36:02;;;;;;;9.85;3.92;;;;;;;13.66;57.74;100417.13;1817657;78;21077;-44
2022/10/13 09:38:29;;;;;;;13.08;4.40;;;;;;;13.67;56.79;100418.72;1817457;79;23095;-44
2022/10/13 09:41:12;;;;;;;10.08;3.83;;;;;;;13.58;56.47;100414.03;1817641;79;21503;-44
2022/10/13 09:43:48;;;;;;;9.70;3.37;;;;;;;13.52;56.78;100408.62;1817867;79;21528;-44
2022/10/13 09:46:25;;;;;;;11.93;3.77;;;;;;;13.49;56.97;100412.30;1817081;79;21014;-44
2022/10/13 09:48:56;;;;;;;11.75;3.90;;;;;;;13.52;56.78;100410.78;1817212;79;21066;-44
2022/10/13 09:51:43;;;;;;;11.25;3.87;;;;;;;13.51;56.36;100411.16;1817309;79;21207;-44
2022/10/13 09:54:27;;;;;;;9.55;4.22;;;;;;;13.47;56.38;100405.60;1817516;79;20915;-44
2022/10/13 09:56:58;;;;;;;10.68;4.30;;;;;;;13.44;56.62;100406.32;1818159;79;20979;-44
2022/10/13 09:59:52;;;;;;;10.38;3.98;;;;;;;13.48;57.28;100405.26;1817970;79;20999;-44
2022/10/13 10:02:36;;;;;;;9.98;3.90;;;;;;;13.59;57.48;100402.79;1818186;79;21575;-44
2022/10/13 10:05:28;;;;;;;10.28;3.77;;;;;;;13.70;57.56;100404.41;1789768;78;21294;-44
2022/10/13 10:08:30;;;;;;;12.15;4.50;;;;;;;13.80;57.58;100394.29;1817876;79;21018;-44
2022/10/13 10:11:02;;;;;;;11.08;4.10;;;;;;;13.93;57.46;100403.95;1808337;79;20962;-44
2022/10/13 10:13:29;;;;;;;10.68;4.22;;;;;;;14.04;57.20;100398.73;1817835;79;20946;-44
2022/10/13 10:16:05;;;;;;;9.48;3.90;;;;;;;14.11;56.88;100398.30;1817964;79;20991;-44
2022/10/13 10:18:54;;;;;;;9.03;3.98;;;;;;;14.15;56.73;100396.43;1817095;79;21087;-44
2022/10/13 10:21:27;;;;;;;12.03;4.08;;;;;;;14.14;55.81;100391.33;1811779;79;20946;-44
2022/10/13 10:24:17;;;;;;;9.05;3.52;;;;;;;14.11;56.38;100395.57;1813323;79;20994;-44
2022/10/13 10:27:19;;;;;;;11.22;4.05;;;;;;;14.12;56.44;100397.16;1817489;79;20963;-44
2022/10/13 10:29:55;;;;;;;10.48;3.75;;;;;;;14.13;56.47;100390.56;1817273;79;21027;-44
2022/10/13 10:33:05;;;;;;;8.68;4.30;;;;;;;14.16;56.31;100386.31;1816944;78;21150;-44
2022/10/13 10:35:50;;;;;;;10.85;3.95;;;;;;;14.22;56.06;100391.70;1817069;79;21006;-44
2022/10/13 10:38:28;;;;;;;11.43;3.70;;;;;;;14.24;55.05;100397.00;1817142;79;21448;-44
2022/10/13 10:41:26;;;;;;;9.43;3.37;;;;;;;14.23;54.89;100390.56;1817219;79;21002;-44
2022/10/13 10:44:02;;;;;;;9.28;4.00;;;;;;;14.23;54.64;100389.20;1817306;79;22006;-44
2022/10/13 10:46:32;;;;;;;9.53;3.83;;;;;;;14.21;54.92;100381.37;1817352;79;21464;-44
2022/10/13 10:49:13;;;;;;;9.00;3.55;;;;;;;14.20;55.17;100383.08;1817277;79;20998;-44
2022/10/13 10:51:40;;;;;;;9.75;4.15;;;;;;;14.23;55.21;100383.14;1817374;79;20896;-44
2022/10/13 10:54:24;;;;;;;9.20;3.72;;;;;;;14.27;54.78;100380.52;1817260;79;21009;-44
2022/10/13 10:57:05;;;;;;;9.88;4.35;;;;;;;14.32;54.94;100385.11;1817288;79;21061;-44
2022/10/13 10:59:46;;;;;;;11.33;3.65;;;;;;;14.35;55.16;100380.28;1814272;79;21218;-44
2022/10/13 11:02:39;;;;;;;10.53;3.92;;;;;;;14.39;55.06;100382.31;1788188;79;21542;-44
2022/10/13 11:05:06;;;;;;;12.95;3.40;;;;;;;14.43;54.74;100387.27;1798649;78;21503;-44
2022/10/13 11:07:49;;;;;;;7.08;3.42;;;;;;;14.44;54.51;100380.66;1817146;79;20970;-44
2022/10/13 11:10:20;;;;;;;12.78;3.80;;;;;;;14.46;54.49;100385.20;1816479;79;20967;-44
2022/10/13 11:12:57;;;;;;;10.00;3.62;;;;;;;14.39;53.25;100379.59;1817050;79;21513;-44
2022/10/13 11:15:30;;;;;;;8.78;3.58;;;;;;;14.28;53.02;100379.37;1816940;79;20962;-45
2022/10/13 11:17:57;;;;;;;8.90;3.90;;;;;;;14.16;53.26;100373.47;1817148;79;20962;-44
2022/10/13 11:20:39;;;;;;;7.28;3.45;;;;;;;14.10;53.14;100372.73;1817216;79;21666;-44
2022/10/13 11:23:21;;;;;;;8.45;3.35;;;;;;;14.02;53.80;100378.63;1816997;79;20995;-44
2022/10/13 11:25:47;;;;;;;8.80;3.37;;;;;;;13.94;54.34;100371.45;1817093;79;21123;-45
2022/10/13 11:28:26;;;;;;;10.08;3.40;;;;;;;13.97;54.46;100374.82;1817017;79;20951;-44
2022/10/13 11:30:56;;;;;;;10.05;3.17;;;;;;;14.04;54.66;100371.47;1787632;79;21855;-44
2022/10/13 11:33:41;;;;;;;14.73;3.52;;;;;;;14.12;54.44;100371.25;1817157;79;21670;-44
2022/10/13 11:36:51;;;;;;;11.65;3.33;;;;;;;14.17;54.38;100369.60;1817218;79;20994;-44
2022/10/13 11:39:32;;;;;;;11.78;4.17;;;;;;;14.19;53.47;100372.74;1816949;79;21128;-44
2022/10/13 11:42:19;;;;;;;11.57;3.87;;;;;;;14.11;53.40;100373.75;1816842;79;20998;-44
2022/10/13 11:45:01;;;;;;;13.03;4.12;;;;;;;14.11;53.84;100371.03;1817208;79;21010;-44
2022/10/13 11:48:03;;;;;;;12.82;3.77;;;;;;;14.16;53.61;100367.23;1817262;79;21623;-44
2022/10/13 11:50:43;;;;;;;10.15;3.45;;;;;;;14.18;53.71;100363.01;1817142;79;21069;-44
2022/10/13 11:53:18;;;;;;;7.78;3.20;;;;;;;14.21;53.83;100365.00;1817253;79;21230;-44
2022/10/13 11:55:54;;;;;;;8.45;3.47;;;;;;;14.29;53.61;100368.08;1817239;79;21555;-44
2022/10/13 11:58:26;;;;;;;9.43;3.45;;;;;;;14.37;53.58;100361.45;1816936;79;21014;-44
2022/10/13 12:01:02;;;;;;;7.45;3.47;;;;;;;14.47;53.40;100355.41;1817087;79;20962;-44
2022/10/13 12:03:37;;;;;;;8.23;3.50;;;;;;;14.59;52.65;100363.41;1816998;79;20946;-44
2022/10/13 12:06:33;;;;;;;9.63;4.03;;;;;;;14.66;52.65;100354.01;1810278;78;21149;-45
2022/10/13 12:09:08;;;;;;;11.53;4.53;;;;;;;14.78;52.66;100354.61;1816917;79;20990;-44
2022/10/13 12:11:37;;;;;;;9.65;4.10;;;;;;;14.95;52.37;100349.27;1816228;79;20891;-45
2022/10/13 12:14:28;;;;;;;9.85;3.58;;;;;;;15.16;51.88;100346.07;1816942;79;21484;-44
2022/10/13 12:16:56;;;;;;;9.98;3.55;;;;;;;15.40;50.93;100344.88;1792671;79;21026;-45
2022/10/13 12:19:26;;;;;;;10.13;3.20;;;;;;;15.58;50.78;100341.88;1816886;79;21126;-45